createdAt,value
2022-09-05T00:00:17.173Z,99.99
2022-09-05T00:01:17.150Z,99.99
2022-09-05T00:02:17.165Z,99.99
2022-09-05T00:03:17.267Z,99.99
2022-09-05T00:04:24.731Z,99.99
2022-09-05T00:05:17.069Z,99.99
2022-09-05T00:06:17.082Z,99.99
2022-09-05T00:07:57.778Z,99.99
2022-09-05T00:08:17.004Z,99.99
2022-09-05T00:09:16.984Z,99.99
2022-09-05T00:10:16.964Z,99.99
2022-09-05T00:11:39.489Z,99.99
2022-09-05T00:12:16.920Z,99.99
2022-09-05T00:13:16.896Z,99.99
2022-09-05T00:14:16.881Z,99.99
2022-09-05T00:15:18.888Z,99.99
2022-09-05T00:16:16.927Z,99.99
2022-09-05T00:17:16.812Z,99.99
2022-09-05T00:21:36.786Z,99.99
2022-09-05T00:24:17.297Z,99.99
2022-09-05T00:24:22.001Z,99.99
2022-09-05T00:24:25.768Z,99.99
2022-09-05T00:24:30.903Z,99.99
2022-09-05T00:24:31.149Z,99.99
2022-09-05T00:24:32.754Z,99.99
2022-09-05T00:25:33.061Z,99.99
2022-09-05T00:26:16.659Z,99.99
2022-09-05T00:27:16.619Z,99.99
2022-09-05T00:28:25.658Z,99.99
2022-09-05T00:29:16.574Z,99.99
2022-09-05T00:31:08.561Z,99.99
2022-09-05T00:31:55.520Z,99.99
2022-09-05T00:32:16.522Z,99.99
2022-09-05T00:33:26.678Z,99.99
2022-09-05T00:34:16.461Z,99.99
2022-09-05T00:35:16.458Z,99.99
2022-09-05T00:36:16.414Z,99.99
2022-09-05T00:37:16.485Z,99.99
2022-09-05T00:38:16.395Z,99.99
2022-09-05T00:39:16.368Z,99.99
2022-09-05T00:40:18.687Z,99.99
2022-09-05T00:41:16.329Z,99.99
2022-09-05T00:42:16.301Z,99.99
2022-09-05T00:43:16.272Z,99.99
2022-09-05T00:44:16.249Z,99.99
2022-09-05T00:45:19.897Z,99.99
2022-09-05T00:46:16.276Z,99.99
2022-09-05T00:47:16.185Z,99.99
2022-09-05T00:48:16.175Z,99.99
2022-09-05T00:49:16.145Z,99.99
2022-09-05T00:50:16.163Z,99.99
2022-09-05T00:51:16.105Z,99.99
2022-09-05T00:52:16.110Z,99.99
2022-09-05T00:53:16.062Z,99.99
2022-09-05T00:54:16.039Z,99.99
2022-09-05T00:55:16.024Z,99.99
2022-09-05T00:56:15.998Z,99.99
2022-09-05T00:57:16.312Z,99.99
2022-09-05T00:58:15.962Z,99.99
2022-09-05T00:59:15.941Z,99.99
2022-09-05T01:00:17.808Z,99.99
2022-09-05T01:01:21.457Z,99.99
2022-09-05T01:02:15.977Z,99.99
2022-09-05T01:03:15.954Z,99.99
2022-09-05T01:04:15.839Z,99.99
2022-09-05T01:05:15.812Z,99.99
2022-09-05T01:06:15.790Z,99.99
2022-09-05T01:07:15.769Z,99.99
2022-09-05T01:08:15.749Z,99.99
2022-09-05T01:09:15.728Z,99.99
2022-09-05T01:10:15.709Z,99.99
2022-09-05T01:11:15.692Z,99.99
2022-09-05T01:12:15.673Z,99.99
2022-09-05T01:13:15.645Z,99.99
2022-09-05T01:14:15.620Z,99.99
2022-09-05T01:15:15.603Z,99.99
2022-09-05T01:16:15.628Z,99.99
2022-09-05T01:17:15.559Z,99.99
2022-09-05T01:18:15.556Z,99.99
2022-09-05T01:19:16.041Z,99.99
2022-09-05T01:20:19.188Z,99.99
2022-09-05T01:21:15.473Z,99.99
2022-09-05T01:22:15.457Z,99.99
2022-09-05T01:23:15.450Z,99.99
2022-09-05T01:24:15.413Z,99.99
2022-09-05T01:25:15.414Z,99.99
2022-09-05T01:26:15.373Z,99.99
2022-09-05T01:27:15.350Z,99.99
2022-09-05T01:29:15.939Z,99.99
2022-09-05T01:29:19.354Z,99.99
2022-09-05T01:30:15.325Z,99.99
2022-09-05T01:31:15.309Z,99.99
2022-09-05T01:32:15.256Z,99.99
2022-09-05T01:33:15.222Z,99.99
2022-09-05T01:34:15.201Z,99.99
2022-09-05T01:35:15.189Z,99.99
2022-09-05T01:36:15.180Z,99.99
2022-09-05T01:37:24.821Z,99.99
2022-09-05T01:38:15.116Z,99.99
2022-09-05T01:40:14.351Z,99.99
2022-09-05T01:40:16.871Z,99.99
2022-09-05T01:41:18.434Z,99.99
2022-09-05T01:42:15.038Z,99.99
2022-09-05T01:43:15.064Z,99.99
2022-09-05T01:44:14.991Z,99.99
2022-09-05T01:45:14.968Z,99.99
2022-09-05T01:46:15.005Z,99.99
2022-09-05T01:47:14.972Z,99.99
2022-09-05T01:48:14.905Z,99.99
2022-09-05T01:49:14.885Z,99.99
2022-09-05T01:50:14.864Z,99.99
2022-09-05T01:51:28.689Z,99.99
2022-09-05T01:52:14.819Z,99.99
2022-09-05T01:53:14.803Z,99.99
2022-09-05T01:54:24.949Z,99.99
2022-09-05T01:55:14.760Z,99.99
2022-09-05T01:56:14.740Z,99.99
2022-09-05T01:57:14.719Z,99.99
2022-09-05T01:58:14.696Z,99.99
2022-09-05T01:59:14.685Z,99.99
2022-09-05T02:00:14.650Z,99.99
2022-09-05T02:01:25.356Z,99.99
2022-09-05T02:02:14.712Z,99.99
2022-09-05T02:03:14.612Z,99.99
2022-09-05T02:04:14.564Z,99.99
2022-09-05T02:05:14.564Z,99.99
2022-09-05T02:06:14.538Z,99.99
2022-09-05T02:07:20.043Z,99.99
2022-09-05T02:08:14.535Z,99.99
2022-09-05T02:09:14.471Z,99.99
2022-09-05T02:10:14.442Z,99.99
2022-09-05T02:11:14.421Z,99.99
2022-09-05T02:12:14.397Z,99.99
2022-09-05T02:13:14.377Z,99.99
2022-09-05T02:14:14.354Z,99.99
2022-09-05T02:15:14.328Z,99.99
2022-09-05T02:16:14.341Z,99.99
2022-09-05T02:17:23.621Z,99.99
2022-09-05T02:18:14.297Z,99.99
2022-09-05T02:19:14.244Z,99.99
2022-09-05T02:20:14.243Z,99.99
2022-09-05T02:21:14.211Z,99.99
2022-09-05T02:22:14.180Z,99.99
2022-09-05T02:23:40.545Z,99.99
2022-09-05T02:24:14.391Z,99.99
2022-09-05T02:25:30.561Z,99.99
2022-09-05T02:26:14.105Z,99.99
2022-09-05T02:28:03.320Z,99.99
2022-09-05T02:28:14.049Z,99.99
2022-09-05T02:29:28.928Z,99.99
2022-09-05T02:30:14.013Z,99.99
2022-09-05T02:31:19.808Z,99.99
2022-09-05T02:32:13.967Z,99.99
2022-09-05T02:33:13.950Z,99.99
2022-09-05T02:34:13.934Z,99.99
2022-09-05T02:35:14.012Z,99.99
2022-09-05T02:36:13.886Z,99.99
2022-09-05T02:37:13.862Z,99.99
2022-09-05T02:40:59.868Z,99.99
2022-09-05T02:45:01.968Z,99.99
2022-09-05T02:45:03.295Z,99.99
2022-09-05T02:45:08.518Z,99.99
2022-09-05T02:45:10.275Z,99.99
2022-09-05T02:45:10.983Z,99.99
2022-09-05T02:45:13.246Z,99.99
2022-09-05T02:45:25.453Z,99.99
2022-09-05T02:46:13.764Z,99.99
2022-09-05T02:47:13.648Z,99.99
2022-09-05T02:48:15.360Z,99.99
2022-09-05T02:49:26.176Z,99.99
2022-09-05T02:54:00.485Z,99.99
2022-09-05T02:56:38.918Z,99.99
2022-09-05T02:57:29.106Z,99.99
2022-09-05T02:57:35.418Z,99.99
2022-09-05T02:57:36.699Z,99.99
2022-09-05T02:57:36.857Z,99.99
2022-09-05T02:57:38.985Z,99.99
2022-09-05T02:57:43.274Z,99.99
2022-09-05T02:58:13.557Z,99.99
2022-09-05T02:59:13.417Z,99.99
2022-09-05T03:00:13.385Z,99.99
2022-09-05T03:01:13.394Z,99.99
2022-09-05T03:02:25.621Z,99.99
2022-09-05T03:03:13.349Z,99.99
2022-09-05T03:04:13.286Z,99.99
2022-09-05T03:05:13.266Z,99.99
2022-09-05T03:06:13.249Z,99.99
2022-09-05T03:07:13.226Z,99.99
2022-09-05T03:08:13.194Z,99.99
2022-09-05T03:09:17.446Z,99.99
2022-09-05T03:10:13.151Z,99.99
2022-09-05T03:11:13.158Z,99.99
2022-09-05T03:12:29.164Z,99.99
2022-09-05T03:13:13.090Z,99.99
2022-09-05T03:14:13.072Z,99.99
2022-09-05T03:15:18.619Z,99.99
2022-09-05T03:16:13.101Z,99.99
2022-09-05T03:17:12.999Z,99.99
2022-09-05T03:18:31.450Z,99.99
2022-09-05T03:19:12.958Z,99.99
2022-09-05T03:20:12.945Z,99.99
2022-09-05T03:21:12.918Z,99.99
2022-09-05T03:22:12.895Z,99.99
2022-09-05T03:23:12.873Z,99.99
2022-09-05T03:24:12.848Z,99.99
2022-09-05T03:25:12.851Z,99.99
2022-09-05T03:26:12.806Z,99.99
2022-09-05T03:27:12.786Z,99.99
2022-09-05T03:28:12.763Z,99.99
2022-09-05T03:29:12.746Z,99.99
2022-09-05T03:30:12.727Z,99.99
2022-09-05T03:31:22.282Z,99.99
2022-09-05T03:32:12.678Z,99.99
2022-09-05T03:33:12.651Z,99.99
2022-09-05T03:34:12.640Z,99.99
2022-09-05T03:35:12.626Z,99.99
2022-09-05T03:36:12.594Z,99.99
2022-09-05T03:37:12.570Z,99.99
2022-09-05T03:38:12.553Z,99.99
2022-09-05T03:39:12.523Z,99.99
2022-09-05T03:40:16.142Z,99.99
2022-09-05T03:41:12.492Z,99.99
2022-09-05T03:42:14.663Z,99.99
2022-09-05T03:43:12.443Z,99.99
2022-09-05T03:44:12.415Z,99.99
2022-09-05T03:45:12.414Z,99.99
2022-09-05T03:46:12.411Z,99.99
2022-09-05T03:47:12.353Z,99.99
2022-09-05T03:48:28.069Z,99.99
2022-09-05T03:50:09.502Z,99.99
2022-09-05T03:54:17.125Z,99.99
2022-09-05T03:57:05.935Z,99.99
2022-09-05T03:57:07.264Z,99.99
2022-09-05T03:57:10.415Z,99.99
2022-09-05T03:57:12.691Z,99.99
2022-09-05T03:57:18.468Z,99.99
2022-09-05T03:57:20.724Z,99.99
2022-09-05T03:57:33.834Z,99.99
2022-09-05T03:58:18.164Z,99.99
2022-09-05T03:59:12.089Z,99.99
2022-09-05T04:00:12.071Z,99.99
2022-09-05T04:02:40.390Z,99.99
2022-09-05T04:04:03.725Z,99.99
2022-09-05T04:06:44.184Z,99.99
2022-09-05T04:08:10.294Z,99.99
2022-09-05T04:08:14.409Z,99.99
2022-09-05T04:08:18.262Z,99.99
2022-09-05T04:08:18.372Z,99.99
2022-09-05T04:08:41.013Z,99.99
2022-09-05T04:09:12.039Z,99.99
2022-09-05T04:10:11.937Z,99.99
2022-09-05T04:11:11.830Z,99.99
2022-09-05T04:12:11.806Z,99.99
2022-09-05T04:13:11.790Z,99.99
2022-09-05T04:14:11.775Z,99.99
2022-09-05T04:15:11.742Z,99.99
2022-09-05T04:16:11.782Z,99.99
2022-09-05T04:17:11.700Z,99.99
2022-09-05T04:18:11.723Z,99.99
2022-09-05T04:19:11.654Z,99.99
2022-09-05T04:20:11.638Z,99.99
2022-09-05T04:21:11.624Z,99.99
2022-09-05T04:22:11.594Z,99.99
2022-09-05T04:23:11.574Z,99.99
2022-09-05T04:24:11.548Z,99.99
2022-09-05T04:25:11.542Z,99.99
2022-09-05T04:26:12.484Z,99.99
2022-09-05T04:27:11.487Z,99.99
2022-09-05T04:28:11.456Z,99.99
2022-09-05T04:29:11.445Z,99.99
2022-09-05T04:30:38.554Z,99.99
2022-09-05T04:31:11.395Z,99.99
2022-09-05T04:32:18.010Z,99.99
2022-09-05T04:33:11.353Z,99.99
2022-09-05T04:34:11.331Z,99.99
2022-09-05T04:35:11.313Z,99.99
2022-09-05T04:36:18.271Z,99.99
2022-09-05T04:37:11.298Z,99.99
2022-09-05T04:38:11.256Z,99.99
2022-09-05T04:39:11.227Z,99.99
2022-09-05T04:40:11.218Z,99.99
2022-09-05T04:41:11.183Z,99.99
2022-09-05T04:42:11.166Z,99.99
2022-09-05T04:43:11.139Z,99.99
2022-09-05T04:44:11.115Z,99.99
2022-09-05T04:45:11.112Z,99.99
2022-09-05T04:46:12.351Z,99.99
2022-09-05T04:47:11.678Z,99.99
2022-09-05T04:48:11.056Z,99.99
2022-09-05T04:49:11.011Z,99.99
2022-09-05T04:50:10.995Z,99.99
2022-09-05T04:51:12.937Z,99.99
2022-09-05T04:52:11.743Z,99.99
2022-09-05T04:53:10.927Z,99.99
2022-09-05T04:54:10.938Z,99.99
2022-09-05T04:55:10.910Z,99.99
2022-09-05T04:56:10.870Z,99.99
2022-09-05T04:57:14.308Z,99.99
2022-09-05T04:58:10.827Z,99.99
2022-09-05T05:01:40.737Z,99.99
2022-09-05T05:04:45.986Z,99.99
2022-09-05T05:06:01.348Z,99.99
2022-09-05T05:06:08.546Z,99.99
2022-09-05T05:06:13.895Z,99.99
2022-09-05T05:06:17.111Z,99.99
2022-09-05T05:06:18.515Z,99.99
2022-09-05T05:06:38.111Z,99.99
2022-09-05T05:07:10.705Z,99.99
2022-09-05T05:08:10.701Z,99.99
2022-09-05T05:09:10.660Z,99.99
2022-09-05T05:14:07.639Z,99.99
2022-09-05T05:16:13.515Z,99.99
2022-09-05T05:17:59.390Z,99.99
2022-09-05T05:18:00.195Z,99.99
2022-09-05T05:18:08.140Z,99.99
2022-09-05T05:18:08.469Z,99.99
2022-09-05T05:18:11.987Z,99.99
2022-09-05T05:18:13.402Z,99.99
2022-09-05T05:18:36.709Z,99.99
2022-09-05T05:19:18.647Z,99.99
2022-09-05T05:20:42.319Z,99.99
2022-09-05T05:21:10.457Z,99.99
2022-09-05T05:22:10.348Z,99.99
2022-09-05T05:23:10.296Z,99.99
2022-09-05T05:24:10.270Z,99.99
2022-09-05T05:25:10.304Z,99.99
2022-09-05T05:26:10.240Z,99.99
2022-09-05T05:27:10.215Z,99.99
2022-09-05T05:28:24.066Z,99.99
2022-09-05T05:29:10.165Z,99.99
2022-09-05T05:30:10.149Z,99.99
2022-09-05T05:31:10.196Z,99.99
2022-09-05T05:32:10.122Z,99.99
2022-09-05T05:33:10.100Z,99.99
2022-09-05T05:34:16.249Z,99.99
2022-09-05T05:35:10.035Z,99.99
2022-09-05T05:36:10.075Z,99.99
2022-09-05T05:37:10.093Z,99.99
2022-09-05T05:38:09.982Z,99.99
2022-09-05T05:39:09.958Z,99.99
2022-09-05T05:40:10.041Z,99.99
2022-09-05T05:41:09.963Z,99.99
2022-09-05T05:42:20.366Z,99.99
2022-09-05T05:43:09.898Z,99.99
2022-09-05T05:44:09.856Z,99.99
2022-09-05T05:45:09.833Z,99.99
2022-09-05T05:46:09.847Z,99.99
2022-09-05T05:47:09.785Z,99.99
2022-09-05T05:48:09.766Z,99.99
2022-09-05T05:49:09.757Z,99.99
2022-09-05T05:50:11.791Z,99.99
2022-09-05T05:51:09.705Z,99.99
2022-09-05T05:52:09.730Z,99.99
2022-09-05T05:53:09.659Z,99.99
2022-09-05T05:54:09.794Z,99.99
2022-09-05T05:55:34.005Z,99.99
2022-09-05T05:56:09.647Z,99.99
2022-09-05T05:57:10.096Z,99.99
2022-09-05T05:58:09.603Z,99.99
2022-09-05T05:59:09.683Z,99.99
2022-09-05T06:00:13.425Z,99.99
2022-09-05T06:01:27.381Z,99.99
2022-09-05T06:02:09.602Z,99.99
2022-09-05T06:03:26.002Z,99.99
2022-09-05T06:04:09.456Z,99.99
2022-09-05T06:05:09.473Z,99.99
2022-09-05T06:06:09.501Z,99.99
2022-09-05T06:07:10.106Z,99.99
2022-09-05T06:12:01.172Z,99.99
2022-09-05T06:12:46.329Z,99.99
2022-09-05T06:14:48.174Z,99.99
2022-09-05T06:14:58.871Z,99.99
2022-09-05T06:15:00.722Z,99.99
2022-09-05T06:15:01.180Z,99.99
2022-09-05T06:15:01.181Z,99.99
2022-09-05T06:15:12.103Z,99.99
2022-09-05T06:16:09.278Z,99.99
2022-09-05T06:17:09.172Z,99.99
2022-09-05T06:18:09.156Z,99.99
2022-09-05T06:19:09.132Z,99.99
2022-09-05T06:22:04.357Z,99.99
2022-09-05T06:22:08.299Z,99.99
2022-09-05T06:22:14.080Z,99.99
2022-09-05T06:23:27.530Z,99.99
2022-09-05T06:24:09.028Z,99.99
2022-09-05T06:25:16.962Z,99.99
2022-09-05T06:26:08.996Z,99.99
2022-09-05T06:27:08.966Z,99.99
2022-09-05T06:28:19.733Z,99.99
2022-09-05T06:29:08.931Z,99.99
2022-09-05T06:30:08.954Z,99.99
2022-09-05T06:31:29.332Z,99.99
2022-09-05T06:32:08.906Z,99.99
2022-09-05T06:33:08.857Z,99.99
2022-09-05T06:34:17.078Z,99.99
2022-09-05T06:35:08.812Z,99.99
2022-09-05T06:36:08.808Z,99.99
2022-09-05T06:37:08.816Z,99.99
2022-09-05T06:38:08.758Z,99.99
2022-09-05T06:39:08.743Z,99.99
2022-09-05T06:40:08.864Z,99.99
2022-09-05T06:41:08.697Z,99.99
2022-09-05T06:42:08.678Z,99.99
2022-09-05T06:43:08.674Z,99.99
2022-09-05T06:44:08.651Z,99.99
2022-09-05T06:45:27.396Z,99.99
2022-09-05T06:46:08.645Z,99.99
2022-09-05T06:47:30.229Z,99.99
2022-09-05T06:48:08.566Z,99.99
2022-09-05T06:49:30.091Z,99.99
2022-09-05T06:50:27.615Z,99.99
2022-09-05T06:51:09.073Z,99.99
2022-09-05T06:52:08.497Z,99.99
2022-09-05T06:53:19.833Z,99.99
2022-09-05T06:54:08.452Z,99.99
2022-09-05T06:55:08.441Z,99.99
2022-09-05T06:56:08.421Z,99.99
2022-09-05T06:57:08.392Z,99.99
2022-09-05T06:58:08.387Z,99.99
2022-09-05T06:59:09.933Z,99.99
2022-09-05T07:00:15.576Z,99.99
2022-09-05T07:01:08.812Z,99.99
2022-09-05T07:02:08.519Z,99.99
2022-09-05T07:03:08.309Z,99.99
2022-09-05T07:04:33.405Z,99.99
2022-09-05T07:05:37.406Z,99.99
2022-09-05T07:06:08.261Z,99.99
2022-09-05T07:07:08.215Z,99.99
2022-09-05T07:08:26.724Z,99.99
2022-09-05T07:09:08.525Z,99.99
2022-09-05T07:10:34.681Z,99.99
2022-09-05T07:11:16.013Z,99.99
2022-09-05T07:12:08.129Z,99.99
2022-09-05T07:13:08.108Z,99.99
2022-09-05T07:14:08.118Z,99.99
2022-09-05T07:15:08.702Z,99.99
2022-09-05T07:16:08.095Z,99.99
2022-09-05T07:17:08.065Z,99.99
2022-09-05T07:18:10.960Z,99.99
2022-09-05T07:19:08.010Z,99.99
2022-09-05T07:20:08.006Z,99.99
2022-09-05T07:21:17.849Z,99.99
2022-09-05T07:22:29.386Z,99.99
2022-09-05T07:24:06.563Z,99.99
2022-09-05T07:24:10.094Z,99.99
2022-09-05T07:25:08.752Z,99.99
2022-09-05T07:26:07.910Z,99.99
2022-09-05T07:27:09.022Z,99.99
2022-09-05T07:28:29.403Z,99.99
2022-09-05T07:29:09.745Z,99.99
2022-09-05T07:30:07.881Z,99.99
2022-09-05T07:31:07.949Z,99.99
2022-09-05T07:32:07.878Z,99.99
2022-09-05T07:33:07.794Z,99.99
2022-09-05T07:34:20.644Z,99.99
2022-09-05T07:35:07.800Z,99.99
2022-09-05T07:36:07.755Z,99.99
2022-09-05T07:37:14.915Z,99.99
2022-09-05T07:38:07.733Z,99.99
2022-09-05T07:39:27.624Z,99.99
2022-09-05T07:40:23.298Z,99.99
2022-09-05T07:41:07.725Z,99.99
2022-09-05T07:42:07.660Z,99.99
2022-09-05T07:43:09.544Z,99.99
2022-09-05T07:44:07.623Z,99.99
2022-09-05T07:45:07.611Z,99.99
2022-09-05T07:46:07.641Z,99.99
2022-09-05T07:47:07.588Z,99.99
2022-09-05T07:48:07.589Z,99.26
2022-09-05T07:49:07.557Z,99.99
2022-09-05T07:52:43.104Z,99.46
2022-09-05T07:56:49.196Z,99.99
2022-09-05T07:56:50.090Z,98.78
2022-09-05T07:57:01.604Z,97.28
2022-09-05T07:57:02.366Z,99.99
2022-09-05T07:57:04.918Z,99.99
2022-09-05T07:57:10.464Z,99.99
2022-09-05T07:58:07.432Z,98.58
2022-09-05T07:59:07.428Z,95.05
2022-09-05T08:00:07.419Z,93.40
2022-09-05T08:01:07.734Z,95.78
2022-09-05T08:02:07.383Z,96.06
2022-09-05T08:03:07.373Z,96.94
2022-09-05T08:04:07.361Z,92.48
2022-09-05T08:05:07.399Z,91.94
2022-09-05T08:06:07.341Z,90.97
2022-09-05T08:07:47.374Z,92.67
2022-09-05T08:08:07.310Z,91.02
2022-09-05T08:10:07.032Z,89.66
2022-09-05T08:10:09.714Z,90.09
2022-09-05T08:11:24.138Z,87.71
2022-09-05T08:12:09.607Z,86.54
2022-09-05T08:13:23.449Z,86.68
2022-09-05T08:14:44.033Z,85.90
2022-09-05T08:15:10.239Z,84.10
2022-09-05T08:16:10.509Z,85.85
2022-09-05T08:17:07.218Z,86.33
2022-09-05T08:18:07.199Z,84.14
2022-09-05T08:19:07.182Z,86.13
2022-09-05T08:20:08.888Z,82.96
2022-09-05T08:21:07.219Z,80.82
2022-09-05T08:22:07.150Z,80.76
2022-09-05T08:23:07.146Z,78.13
2022-09-05T08:24:12.975Z,80.02
2022-09-05T08:25:07.140Z,81.87
2022-09-05T08:26:07.114Z,81.93
2022-09-05T08:27:16.318Z,80.95
2022-09-05T08:28:07.087Z,83.48
2022-09-05T08:29:07.321Z,85.53
2022-09-05T08:30:26.154Z,86.21
2022-09-05T08:31:07.079Z,86.56
2022-09-05T08:32:07.090Z,81.15
2022-09-05T08:33:11.048Z,77.09
2022-09-05T08:34:07.033Z,76.48
2022-09-05T08:35:07.023Z,78.03
2022-09-05T08:36:07.017Z,77.07
2022-09-05T08:37:07.001Z,75.99
2022-09-05T08:38:06.992Z,78.38
2022-09-05T08:39:06.992Z,80.02
2022-09-05T08:40:10.523Z,75.95
2022-09-05T08:41:06.966Z,73.74
2022-09-05T08:42:06.957Z,69.04
2022-09-05T08:46:17.008Z,68.78
2022-09-05T08:46:37.465Z,72.27
2022-09-05T08:46:40.232Z,70.61
2022-09-05T08:46:47.411Z,74.07
2022-09-05T08:47:06.950Z,74.46
2022-09-05T08:48:06.955Z,69.99
2022-09-05T08:49:11.450Z,69.89
2022-09-05T08:50:06.888Z,66.47
2022-09-05T08:51:06.912Z,68.65
2022-09-05T08:52:06.859Z,69.43
2022-09-05T08:53:28.418Z,68.75
2022-09-05T08:54:06.842Z,66.83
2022-09-05T08:55:07.706Z,68.75
2022-09-05T08:56:06.839Z,67.15
2022-09-05T08:57:06.831Z,65.69
2022-09-05T08:58:06.823Z,63.95
2022-09-05T08:59:31.654Z,66.34
2022-09-05T09:00:19.129Z,68.52
2022-09-05T09:01:06.839Z,70.88
2022-09-05T09:02:46.125Z,67.41
2022-09-05T09:03:06.866Z,65.36
2022-09-05T09:04:11.431Z,65.62
2022-09-05T09:05:06.745Z,66.66
2022-09-05T09:06:14.241Z,65.78
2022-09-05T09:07:47.183Z,67.19
2022-09-05T09:08:06.727Z,66.66
2022-09-05T09:09:06.714Z,65.88
2022-09-05T09:10:06.702Z,65.26
2022-09-05T09:11:06.701Z,65.30
2022-09-05T09:12:06.686Z,67.68
2022-09-05T09:13:06.686Z,67.77
2022-09-05T09:14:06.674Z,67.58
2022-09-05T09:15:06.738Z,66.17
2022-09-05T09:16:06.840Z,66.66
2022-09-05T09:17:06.718Z,66.50
2022-09-05T09:18:06.655Z,64.73
2022-09-05T09:19:06.634Z,65.39
2022-09-05T09:20:06.638Z,67.44
2022-09-05T09:21:06.625Z,67.15
2022-09-05T09:22:06.599Z,67.05
2022-09-05T09:23:06.715Z,68.13
2022-09-05T09:24:06.584Z,68.26
2022-09-05T09:25:14.263Z,66.44
2022-09-05T09:26:06.561Z,69.08
2022-09-05T09:27:06.569Z,67.38
2022-09-05T09:28:45.126Z,67.15
2022-09-05T09:29:06.548Z,66.24
2022-09-05T09:30:06.530Z,66.40
2022-09-05T09:31:06.552Z,68.23
2022-09-05T09:32:06.509Z,66.37
2022-09-05T09:33:06.532Z,64.51
2022-09-05T09:34:06.553Z,63.92
2022-09-05T09:35:06.483Z,64.61
2022-09-05T09:36:08.217Z,65.69
2022-09-05T09:37:06.479Z,64.61
2022-09-05T09:38:06.476Z,64.70
2022-09-05T09:39:21.521Z,64.61
2022-09-05T09:40:06.472Z,65.39
2022-09-05T09:41:06.428Z,64.87
2022-09-05T09:42:06.431Z,65.85
2022-09-05T09:43:07.207Z,65.49
2022-09-05T09:44:06.432Z,67.97
2022-09-05T09:45:27.722Z,69.37
2022-09-05T09:46:06.425Z,67.90
2022-09-05T09:47:06.385Z,67.94
2022-09-05T09:48:06.371Z,69.86
2022-09-05T09:49:22.677Z,63.66
2022-09-05T09:50:06.358Z,64.25
2022-09-05T09:51:06.344Z,63.37
2022-09-05T09:52:06.333Z,63.85
2022-09-05T09:53:06.331Z,63.37
2022-09-05T09:54:06.318Z,62.78
2022-09-05T09:55:06.311Z,63.53
2022-09-05T09:56:06.929Z,64.32
2022-09-05T09:57:06.298Z,68.19
2022-09-05T09:58:06.295Z,68.19
2022-09-05T09:59:06.275Z,69.49
2022-09-05T10:00:06.274Z,70.73
2022-09-05T10:01:21.516Z,70.70
2022-09-05T10:02:15.630Z,76.02
2022-09-05T10:05:25.421Z,72.86
2022-09-05T10:10:33.406Z,71.37
2022-09-05T10:10:35.975Z,74.78
2022-09-05T10:10:45.151Z,74.49
2022-09-05T10:10:46.908Z,72.21
2022-09-05T10:10:49.907Z,72.21
2022-09-05T10:10:54.452Z,73.67
2022-09-05T10:11:09.533Z,73.61
2022-09-05T10:12:06.892Z,74.93
2022-09-05T10:13:08.006Z,76.68
2022-09-05T10:14:06.152Z,79.38
2022-09-05T10:15:30.466Z,81.71
2022-09-05T10:16:07.507Z,80.40
2022-09-05T10:17:06.130Z,79.43
2022-09-05T10:18:06.117Z,77.20
2022-09-05T10:19:06.117Z,77.68
2022-09-05T10:20:10.141Z,78.85
2022-09-05T10:21:15.313Z,79.43
2022-09-05T10:23:06.067Z,84.82
2022-09-05T10:24:06.074Z,80.35
2022-09-05T10:25:18.580Z,82.87
2022-09-05T10:26:06.054Z,87.06
2022-09-05T10:27:06.026Z,78.27
2022-09-05T10:28:06.043Z,85.56
2022-09-05T10:29:36.866Z,87.84
2022-09-05T10:30:06.015Z,85.41
2022-09-05T10:33:17.002Z,85.41
2022-09-05T10:33:33.766Z,87.25
2022-09-05T10:35:08.326Z,88.62
2022-09-05T10:35:19.948Z,86.87
2022-09-05T10:35:21.133Z,87.54
2022-09-05T10:36:05.966Z,86.87
2022-09-05T10:37:05.932Z,85.66
2022-09-05T10:38:07.752Z,91.05
2022-09-05T10:39:05.914Z,91.34
2022-09-05T10:40:05.947Z,90.95
2022-09-05T10:41:21.360Z,90.56
2022-09-05T10:42:05.916Z,91.58
2022-09-05T10:43:05.878Z,92.50
2022-09-05T10:44:05.864Z,87.01
2022-09-05T10:45:05.883Z,84.91
2022-09-05T10:46:05.924Z,79.39
2022-09-05T10:47:05.872Z,77.19
2022-09-05T10:48:13.728Z,78.85
2022-09-05T10:49:05.832Z,76.57
2022-09-05T10:50:05.820Z,74.29
2022-09-05T10:51:05.826Z,74.58
2022-09-05T10:52:18.413Z,75.56
2022-09-05T10:53:05.795Z,73.96
2022-09-05T10:54:05.796Z,73.77
2022-09-05T10:55:14.091Z,74.16
2022-09-05T10:56:05.756Z,74.84
2022-09-05T10:57:05.754Z,73.61
2022-09-05T10:58:05.764Z,74.50
2022-09-05T11:02:16.194Z,73.17
2022-09-05T11:02:22.589Z,73.85
2022-09-05T11:02:24.099Z,72.49
2022-09-05T11:02:29.326Z,72.74
2022-09-05T11:03:05.771Z,73.58
2022-09-05T11:04:05.797Z,74.52
2022-09-05T11:05:05.756Z,73.94
2022-09-05T11:06:09.507Z,75.56
2022-09-05T11:07:05.669Z,76.34
2022-09-05T11:08:05.653Z,81.01
2022-09-05T11:09:05.654Z,81.20
2022-09-05T11:10:05.640Z,81.20
2022-09-05T11:11:05.626Z,77.50
2022-09-05T11:12:05.617Z,82.22
2022-09-05T11:13:05.615Z,75.86
2022-09-05T11:14:05.714Z,70.43
2022-09-05T11:15:05.631Z,70.93
2022-09-05T11:16:06.830Z,69.01
2022-09-05T11:17:05.619Z,67.68
2022-09-05T11:18:05.582Z,68.65
2022-09-05T11:19:05.595Z,66.76
2022-09-05T11:20:05.569Z,68.71
2022-09-05T11:21:05.550Z,67.15
2022-09-05T11:22:23.833Z,68.13
2022-09-05T11:23:05.538Z,68.13
2022-09-05T11:24:05.532Z,65.62
2022-09-05T11:25:05.540Z,64.67
2022-09-05T11:26:05.583Z,65.81
2022-09-05T11:27:23.672Z,65.88
2022-09-05T11:28:05.560Z,67.05
2022-09-05T11:29:05.536Z,70.48
2022-09-05T11:30:05.513Z,66.01
2022-09-05T11:31:05.525Z,68.39
2022-09-05T11:34:02.836Z,66.99
2022-09-05T11:36:56.500Z,65.59
2022-09-05T11:39:26.298Z,68.04
2022-09-05T11:39:57.724Z,69.63
2022-09-05T11:39:58.480Z,66.05
2022-09-05T11:40:02.600Z,72.63
2022-09-05T11:40:05.509Z,73.02
2022-09-05T11:40:08.558Z,71.55
2022-09-05T11:40:30.123Z,67.93
2022-09-05T11:41:11.852Z,68.16
2022-09-05T11:42:05.513Z,67.64
2022-09-05T11:43:05.418Z,64.54
2022-09-05T11:44:25.758Z,65.23
2022-09-05T11:45:05.411Z,64.44
2022-09-05T11:46:05.484Z,66.50
2022-09-05T11:47:14.277Z,64.77
2022-09-05T11:48:05.421Z,65.48
2022-09-05T11:49:05.392Z,66.08
2022-09-05T11:50:08.860Z,63.62
2022-09-05T11:51:05.402Z,60.58
2022-09-05T11:52:05.396Z,59.14
2022-09-05T11:53:05.421Z,61.30
2022-09-05T11:54:05.416Z,61.00
2022-09-05T11:55:05.382Z,60.22
2022-09-05T11:56:05.388Z,61.07
2022-09-05T11:57:33.920Z,60.91
2022-09-05T11:58:19.937Z,57.84
2022-09-05T11:59:05.388Z,58.82
2022-09-05T12:00:09.277Z,59.83
2022-09-05T12:01:41.961Z,62.28
2022-09-05T12:02:17.076Z,61.04
2022-09-05T12:03:05.380Z,62.15
2022-09-05T12:04:08.539Z,59.61
2022-09-05T12:05:50.018Z,62.64
2022-09-05T12:06:05.413Z,63.33
2022-09-05T12:07:15.562Z,63.75
2022-09-05T12:08:05.448Z,63.53
2022-09-05T12:09:06.252Z,60.88
2022-09-05T12:10:05.398Z,62.84
2022-09-05T12:11:05.386Z,61.69
2022-09-05T12:12:05.369Z,60.61
2022-09-05T12:13:05.366Z,60.52
2022-09-05T12:14:17.057Z,61.33
2022-09-05T12:15:07.254Z,59.66
2022-09-05T12:16:08.424Z,57.90
2022-09-05T12:17:06.533Z,58.06
2022-09-05T12:19:19.367Z,60.42
2022-09-05T12:20:05.398Z,60.55
2022-09-05T12:22:09.832Z,66.43
2022-09-05T12:23:05.411Z,59.03
2022-09-05T12:25:23.591Z,60.90
2022-09-05T12:26:02.865Z,60.44
2022-09-05T12:27:38.656Z,59.03
2022-09-05T12:27:40.544Z,62.08
2022-09-05T12:29:26.087Z,61.65
2022-09-05T12:29:32.676Z,58.36
2022-09-05T12:30:05.717Z,60.36
2022-09-05T12:32:19.667Z,62.16
2022-09-05T12:32:34.408Z,64.64
2022-09-05T12:36:01.227Z,63.44
2022-09-05T12:36:10.059Z,65.92
2022-09-05T12:36:13.057Z,64.48
2022-09-05T12:40:00.931Z,65.95
2022-09-05T12:40:44.621Z,67.25
2022-09-05T12:40:54.866Z,67.47
2022-09-05T12:41:32.283Z,68.26
2022-09-05T12:41:36.240Z,68.35
2022-09-05T12:41:41.391Z,63.52
2022-09-05T12:41:43.194Z,69.65
2022-09-05T12:42:10.054Z,58.16
2022-09-05T12:42:11.535Z,67.09
2022-09-05T12:44:39.736Z,64.81
2022-09-05T12:44:41.358Z,66.30
2022-09-05T12:45:05.578Z,66.17
2022-09-05T12:46:10.934Z,64.25
2022-09-05T12:47:19.070Z,61.63
2022-09-05T12:48:05.636Z,60.88
2022-09-05T12:49:07.250Z,61.66
2022-09-05T12:50:14.905Z,60.49
2022-09-05T12:51:05.285Z,63.17
2022-09-05T12:52:05.285Z,58.75
2022-09-05T12:53:05.281Z,61.99
2022-09-05T12:54:05.274Z,60.32
2022-09-05T12:55:05.314Z,59.53